This is the latest recevied weather packets stored in our database for station/object F4ETJ-1. If no packets are shown the sender has not sent any weather packets the latest 10 day(s).
| Time | Temp. | Humidity | Pressure | Rain* | Wind** | Luminosity | Snow |
|---|---|---|---|---|---|---|---|
| 1778019834 | 11.67° C | 87% | 1008.2 hPa | 0 mm | - | - | - |
| 1778018812 | 11.67° C | 87% | 1008.2 hPa | 0 mm | - | - | - |
| 1778018753 | 11.67° C | 87% | 1008.2 hPa | 0 mm | - | - | - |
| 1778018032 | 11.67° C | 86% | 1008.3 hPa | 0 mm | - | - | - |
| 1778017312 | 11.67° C | 85% | 1008.4 hPa | 0 mm | - | - | - |
| 1778016230 | 12.22° C | 84% | 1008.5 hPa | 0 mm | - | - | - |
| 1778014789 | 12.78° C | 83% | 1008.8 hPa | 0 mm | - | - | - |
| 1778014429 | 12.78° C | 83% | 1008.9 hPa | 0 mm | - | - | - |
| 1778014068 | 12.78° C | 83% | 1008.8 hPa | 0 mm | - | - | - |
| 1778013708 | 12.78° C | 83% | 1008.8 hPa | 0 mm | - | - | - |
| 1778013349 | 12.78° C | 82% | 1008.8 hPa | 0 mm | - | - | - |
| 1778012627 | 13.33° C | 81% | 1008.8 hPa | 0 mm | - | - | - |
| 1778012267 | 13.33° C | 81% | 1008.7 hPa | 0 mm | - | - | - |
| 1778011909 | 13.33° C | 81% | 1008.7 hPa | 0 mm | - | - | - |
| 1778011549 | 13.33° C | 81% | 1008.6 hPa | 0 mm | - | - | - |
| 1778010465 | 13.89° C | 79% | 1008.5 hPa | 0 mm | - | - | - |
| 1778010105 | 13.89° C | 79% | 1008.4 hPa | 0 mm | - | - | - |
| 1778009746 | 13.89° C | 78% | 1008.4 hPa | 0 mm | - | - | - |
| 1778003979 | 15.56° C | 72% | 1008 hPa | 0 mm | - | - | - |
| 1778002899 | 16.11° C | 70% | 1008 hPa | 0 mm | - | - | - |
| 1778000738 | 15.56° C | 72% | 1008.2 hPa | 0 mm | - | - | - |
| 1777999655 | 15.56° C | 75% | 1008.1 hPa | 0 mm | - | - | - |
| 1777998574 | 16.11° C | 71% | 1008.2 hPa | 0 mm | - | - | - |
| 1777998213 | 16.11° C | 69% | 1008.2 hPa | 0 mm | - | - | - |
| 1777996053 | 16.67° C | 69% | 1008.2 hPa | 0 mm | - | - | - |
* Rain latest hour (hover to see other rain measurements)
** Current wind speed in m/s (hover to see current wind gust speed)